sensor_id;sensor_type;location;lat;lon;timestamp;P1;durP1;ratioP1;P2;durP2;ratioP2
53618;SDS011;68717;53.040;18.488;2023-06-04T00:00:12;9.48;;;2.85;;
53618;SDS011;68717;53.040;18.488;2023-06-04T00:00:46;7.72;;;2.65;;
53618;SDS011;68717;53.040;18.488;2023-06-04T00:01:19;9.80;;;2.47;;
53618;SDS011;68717;53.040;18.488;2023-06-04T00:01:42;11.80;;;2.80;;
53618;SDS011;68717;53.040;18.488;2023-06-04T00:01:57;13.02;;;2.88;;
53618;SDS011;68717;53.040;18.488;2023-06-04T00:02:10;10.35;;;2.55;;
53618;SDS011;68717;53.040;18.488;2023-06-04T00:02:25;10.18;;;2.40;;
53618;SDS011;68717;53.040;18.488;2023-06-04T00:02:38;12.00;;;2.78;;
53618;SDS011;68717;53.040;18.488;2023-06-04T00:02:51;11.10;;;2.80;;
53618;SDS011;68717;53.040;18.488;2023-06-04T00:03:04;10.40;;;2.78;;
53618;SDS011;68717;53.040;18.488;2023-06-04T00:03:17;9.25;;;2.67;;
53618;SDS011;68717;53.040;18.488;2023-06-04T00:03:30;11.35;;;2.88;;
53618;SDS011;68717;53.040;18.488;2023-06-04T00:03:43;10.90;;;3.05;;
53618;SDS011;68717;53.040;18.488;2023-06-04T00:03:57;9.70;;;3.03;;
53618;SDS011;68717;53.040;18.488;2023-06-04T00:04:09;10.20;;;2.63;;
53618;SDS011;68717;53.040;18.488;2023-06-04T00:04:22;11.52;;;2.65;;
53618;SDS011;68717;53.040;18.488;2023-06-04T00:04:37;11.55;;;2.53;;
53618;SDS011;68717;53.040;18.488;2023-06-04T00:04:50;9.30;;;2.53;;
53618;SDS011;68717;53.040;18.488;2023-06-04T00:05:03;10.30;;;2.60;;
53618;SDS011;68717;53.040;18.488;2023-06-04T00:05:18;12.48;;;2.67;;
53618;SDS011;68717;53.040;18.488;2023-06-04T00:05:31;11.73;;;2.70;;
53618;SDS011;68717;53.040;18.488;2023-06-04T00:05:44;13.77;;;2.90;;
53618;SDS011;68717;53.040;18.488;2023-06-04T00:05:56;13.15;;;2.80;;
53618;SDS011;68717;53.040;18.488;2023-06-04T00:06:09;9.02;;;2.70;;
53618;SDS011;68717;53.040;18.488;2023-06-04T00:06:22;10.07;;;2.72;;
53618;SDS011;68717;53.040;18.488;2023-06-04T00:06:34;11.35;;;2.67;;
53618;SDS011;68717;53.040;18.488;2023-06-04T00:06:48;10.48;;;2.50;;
53618;SDS011;68717;53.040;18.488;2023-06-04T00:07:01;8.35;;;2.45;;
53618;SDS011;68717;53.040;18.488;2023-06-04T00:07:14;7.80;;;2.40;;
53618;SDS011;68717;53.040;18.488;2023-06-04T00:07:27;8.93;;;2.58;;
53618;SDS011;68717;53.040;18.488;2023-06-04T00:07:39;9.45;;;2.63;;
53618;SDS011;68717;53.040;18.488;2023-06-04T00:07:52;10.18;;;2.67;;
53618;SDS011;68717;53.040;18.488;2023-06-04T00:08:05;11.73;;;2.70;;
53618;SDS011;68717;53.040;18.488;2023-06-04T00:08:18;12.40;;;2.90;;
53618;SDS011;68717;53.040;18.488;2023-06-04T00:08:31;11.75;;;3.00;;
53618;SDS011;68717;53.040;18.488;2023-06-04T00:08:44;10.50;;;2.78;;
53618;SDS011;68717;53.040;18.488;2023-06-04T00:08:57;9.13;;;2.53;;
53618;SDS011;68717;53.040;18.488;2023-06-04T00:09:10;9.10;;;2.50;;
53618;SDS011;68717;53.040;18.488;2023-06-04T00:09:22;9.60;;;2.90;;
53618;SDS011;68717;53.040;18.488;2023-06-04T00:09:35;9.98;;;2.88;;
53618;SDS011;68717;53.040;18.488;2023-06-04T00:09:48;10.40;;;2.50;;
53618;SDS011;68717;53.040;18.488;2023-06-04T00:10:03;9.73;;;2.47;;
53618;SDS011;68717;53.040;18.488;2023-06-04T00:10:16;11.38;;;2.47;;
53618;SDS011;68717;53.040;18.488;2023-06-04T00:10:29;12.65;;;2.60;;
53618;SDS011;68717;53.040;18.488;2023-06-04T00:10:43;10.75;;;2.53;;
53618;SDS011;68717;53.040;18.488;2023-06-04T00:10:55;7.40;;;2.50;;
53618;SDS011;68717;53.040;18.488;2023-06-04T00:11:08;6.85;;;2.53;;
53618;SDS011;68717;53.040;18.488;2023-06-04T00:11:22;7.32;;;2.75;;
53618;SDS011;68717;53.040;18.488;2023-06-04T00:11:35;9.88;;;2.80;;
53618;SDS011;68717;53.040;18.488;2023-06-04T00:11:49;10.70;;;2.60;;
53618;SDS011;68717;53.040;18.488;2023-06-04T00:12:02;8.30;;;2.55;;
53618;SDS011;68717;53.040;18.488;2023-06-04T00:12:15;10.02;;;2.70;;
53618;SDS011;68717;53.040;18.488;2023-06-04T00:12:28;11.77;;;2.90;;
53618;SDS011;68717;53.040;18.488;2023-06-04T00:12:42;9.90;;;2.63;;
53618;SDS011;68717;53.040;18.488;2023-06-04T00:12:55;7.68;;;2.40;;
53618;SDS011;68717;53.040;18.488;2023-06-04T00:13:07;8.57;;;2.47;;
53618;SDS011;68717;53.040;18.488;2023-06-04T00:13:20;9.50;;;2.75;;
53618;SDS011;68717;53.040;18.488;2023-06-04T00:13:33;10.20;;;2.90;;
53618;SDS011;68717;53.040;18.488;2023-06-04T00:13:45;10.35;;;2.70;;
53618;SDS011;68717;53.040;18.488;2023-06-04T00:13:58;9.63;;;2.67;;
53618;SDS011;68717;53.040;18.488;2023-06-04T00:14:12;9.65;;;2.65;;
53618;SDS011;68717;53.040;18.488;2023-06-04T00:14:25;10.32;;;2.67;;
53618;SDS011;68717;53.040;18.488;2023-06-04T00:14:38;9.25;;;2.70;;
53618;SDS011;68717;53.040;18.488;2023-06-04T00:14:50;10.90;;;2.88;;
53618;SDS011;68717;53.040;18.488;2023-06-04T00:15:03;14.63;;;2.67;;
53618;SDS011;68717;53.040;18.488;2023-06-04T00:15:17;14.00;;;2.70;;
53618;SDS011;68717;53.040;18.488;2023-06-04T00:15:30;8.95;;;2.75;;
53618;SDS011;68717;53.040;18.488;2023-06-04T00:15:43;8.65;;;2.80;;
53618;SDS011;68717;53.040;18.488;2023-06-04T00:15:56;8.07;;;2.67;;
53618;SDS011;68717;53.040;18.488;2023-06-04T00:16:08;7.60;;;2.58;;
53618;SDS011;68717;53.040;18.488;2023-06-04T00:16:22;8.55;;;2.60;;
53618;SDS011;68717;53.040;18.488;2023-06-04T00:16:34;9.63;;;2.65;;
53618;SDS011;68717;53.040;18.488;2023-06-04T00:16:47;10.32;;;2.67;;
53618;SDS011;68717;53.040;18.488;2023-06-04T00:17:00;10.52;;;2.60;;
53618;SDS011;68717;53.040;18.488;2023-06-04T00:17:14;9.38;;;2.47;;
53618;SDS011;68717;53.040;18.488;2023-06-04T00:17:28;9.27;;;2.47;;
53618;SDS011;68717;53.040;18.488;2023-06-04T00:17:40;12.38;;;2.50;;
53618;SDS011;68717;53.040;18.488;2023-06-04T00:17:53;12.68;;;2.50;;
53618;SDS011;68717;53.040;18.488;2023-06-04T00:18:06;10.95;;;2.53;;
53618;SDS011;68717;53.040;18.488;2023-06-04T00:18:19;10.10;;;2.50;;
53618;SDS011;68717;53.040;18.488;2023-06-04T00:18:32;9.13;;;2.40;;
53618;SDS011;68717;53.040;18.488;2023-06-04T00:18:45;9.77;;;2.40;;
53618;SDS011;68717;53.040;18.488;2023-06-04T00:18:57;10.77;;;2.55;;
53618;SDS011;68717;53.040;18.488;2023-06-04T00:19:11;9.05;;;2.50;;
53618;SDS011;68717;53.040;18.488;2023-06-04T00:19:23;8.50;;;2.38;;
53618;SDS011;68717;53.040;18.488;2023-06-04T00:19:37;8.50;;;2.70;;
53618;SDS011;68717;53.040;18.488;2023-06-04T00:19:50;10.35;;;2.83;;
53618;SDS011;68717;53.040;18.488;2023-06-04T00:20:05;10.60;;;2.70;;
53618;SDS011;68717;53.040;18.488;2023-06-04T00:20:18;10.00;;;2.60;;
53618;SDS011;68717;53.040;18.488;2023-06-04T00:20:31;10.07;;;2.47;;
53618;SDS011;68717;53.040;18.488;2023-06-04T00:20:43;8.10;;;2.50;;
53618;SDS011;68717;53.040;18.488;2023-06-04T00:20:56;9.30;;;2.60;;
53618;SDS011;68717;53.040;18.488;2023-06-04T00:21:09;9.73;;;2.60;;
53618;SDS011;68717;53.040;18.488;2023-06-04T00:21:21;8.80;;;2.58;;
53618;SDS011;68717;53.040;18.488;2023-06-04T00:21:34;10.05;;;2.53;;
53618;SDS011;68717;53.040;18.488;2023-06-04T00:21:48;13.07;;;2.80;;
53618;SDS011;68717;53.040;18.488;2023-06-04T00:22:01;11.93;;;2.70;;
53618;SDS011;68717;53.040;18.488;2023-06-04T00:22:13;10.52;;;2.80;;
53618;SDS011;68717;53.040;18.488;2023-06-04T00:22:26;9.95;;;2.90;;
53618;SDS011;68717;53.040;18.488;2023-06-04T00:22:39;9.18;;;2.75;;
53618;SDS011;68717;53.040;18.488;2023-06-04T00:22:53;10.68;;;2.85;;
53618;SDS011;68717;53.040;18.488;2023-06-04T00:23:06;11.50;;;3.00;;
53618;SDS011;68717;53.040;18.488;2023-06-04T00:23:19;10.85;;;2.92;;
53618;SDS011;68717;53.040;18.488;2023-06-04T00:23:33;8.40;;;2.55;;
53618;SDS011;68717;53.040;18.488;2023-06-04T00:23:45;8.18;;;2.50;;
53618;SDS011;68717;53.040;18.488;2023-06-04T00:23:58;10.38;;;2.72;;
53618;SDS011;68717;53.040;18.488;2023-06-04T00:24:11;10.77;;;2.80;;
53618;SDS011;68717;53.040;18.488;2023-06-04T00:24:25;11.30;;;2.90;;
53618;SDS011;68717;53.040;18.488;2023-06-04T00:24:38;10.57;;;2.75;;
53618;SDS011;68717;53.040;18.488;2023-06-04T00:24:51;8.93;;;2.58;;
53618;SDS011;68717;53.040;18.488;2023-06-04T00:25:05;7.95;;;2.40;;
53618;SDS011;68717;53.040;18.488;2023-06-04T00:25:18;8.38;;;2.63;;
53618;SDS011;68717;53.040;18.488;2023-06-04T00:25:30;9.43;;;2.63;;
53618;SDS011;68717;53.040;18.488;2023-06-04T00:25:43;9.30;;;2.63;;
53618;SDS011;68717;53.040;18.488;2023-06-04T00:25:56;8.57;;;2.63;;
53618;SDS011;68717;53.040;18.488;2023-06-04T00:26:09;9.27;;;2.53;;
53618;SDS011;68717;53.040;18.488;2023-06-04T00:26:21;10.07;;;2.63;;
53618;SDS011;68717;53.040;18.488;2023-06-04T00:26:35;9.05;;;2.50;;
53618;SDS011;68717;53.040;18.488;2023-06-04T00:26:48;9.05;;;2.40;;
53618;SDS011;68717;53.040;18.488;2023-06-04T00:27:00;10.40;;;2.58;;
53618;SDS011;68717;53.040;18.488;2023-06-04T00:27:13;13.40;;;2.90;;
53618;SDS011;68717;53.040;18.488;2023-06-04T00:27:26;14.90;;;2.75;;
53618;SDS011;68717;53.040;18.488;2023-06-04T00:27:38;12.32;;;2.45;;
53618;SDS011;68717;53.040;18.488;2023-06-04T00:27:52;8.32;;;2.42;;
53618;SDS011;68717;53.040;18.488;2023-06-04T00:28:05;8.15;;;2.58;;
53618;SDS011;68717;53.040;18.488;2023-06-04T00:28:18;8.85;;;2.55;;
53618;SDS011;68717;53.040;18.488;2023-06-04T00:28:30;10.36;;;2.70;;
53618;SDS011;68717;53.040;18.488;2023-06-04T00:28:43;9.85;;;2.47;;
53618;SDS011;68717;53.040;18.488;2023-06-04T00:28:56;9.88;;;2.55;;
53618;SDS011;68717;53.040;18.488;2023-06-04T00:29:09;9.95;;;2.78;;
53618;SDS011;68717;53.040;18.488;2023-06-04T00:29:21;9.43;;;2.70;;
53618;SDS011;68717;53.040;18.488;2023-06-04T00:29:34;7.35;;;2.50;;
53618;SDS011;68717;53.040;18.488;2023-06-04T00:29:48;8.45;;;2.50;;
53618;SDS011;68717;53.040;18.488;2023-06-04T00:30:00;8.82;;;2.65;;
53618;SDS011;68717;53.040;18.488;2023-06-04T00:30:13;7.85;;;2.55;;
53618;SDS011;68717;53.040;18.488;2023-06-04T00:30:27;8.30;;;2.30;;
53618;SDS011;68717;53.040;18.488;2023-06-04T00:30:40;8.65;;;2.20;;
53618;SDS011;68717;53.040;18.488;2023-06-04T00:30:52;8.85;;;2.30;;
53618;SDS011;68717;53.040;18.488;2023-06-04T00:31:07;9.10;;;2.30;;
53618;SDS011;68717;53.040;18.488;2023-06-04T00:31:22;14.13;;;2.50;;
53618;SDS011;68717;53.040;18.488;2023-06-04T00:31:35;12.73;;;2.60;;
53618;SDS011;68717;53.040;18.488;2023-06-04T00:31:48;11.05;;;2.58;;
53618;SDS011;68717;53.040;18.488;2023-06-04T00:32:01;8.65;;;2.40;;
53618;SDS011;68717;53.040;18.488;2023-06-04T00:32:14;7.43;;;2.50;;
53618;SDS011;68717;53.040;18.488;2023-06-04T00:32:28;8.38;;;2.60;;
53618;SDS011;68717;53.040;18.488;2023-06-04T00:32:41;8.25;;;2.85;;
53618;SDS011;68717;53.040;18.488;2023-06-04T00:32:55;6.93;;;2.80;;
53618;SDS011;68717;53.040;18.488;2023-06-04T00:33:08;8.23;;;2.63;;
53618;SDS011;68717;53.040;18.488;2023-06-04T00:33:20;8.80;;;2.58;;
53618;SDS011;68717;53.040;18.488;2023-06-04T00:33:33;9.13;;;2.63;;
53618;SDS011;68717;53.040;18.488;2023-06-04T00:33:47;9.07;;;2.50;;
53618;SDS011;68717;53.040;18.488;2023-06-04T00:34:00;8.95;;;2.60;;
53618;SDS011;68717;53.040;18.488;2023-06-04T00:34:12;8.10;;;2.72;;
53618;SDS011;68717;53.040;18.488;2023-06-04T00:34:25;8.32;;;2.88;;
53618;SDS011;68717;53.040;18.488;2023-06-04T00:34:38;9.48;;;2.53;;
53618;SDS011;68717;53.040;18.488;2023-06-04T00:34:52;10.15;;;2.60;;
53618;SDS011;68717;53.040;18.488;2023-06-04T00:35:07;10.88;;;2.65;;
53618;SDS011;68717;53.040;18.488;2023-06-04T00:35:21;9.80;;;2.58;;
53618;SDS011;68717;53.040;18.488;2023-06-04T00:35:34;7.85;;;2.55;;
53618;SDS011;68717;53.040;18.488;2023-06-04T00:35:46;8.15;;;2.60;;
53618;SDS011;68717;53.040;18.488;2023-06-04T00:35:59;7.72;;;2.60;;
53618;SDS011;68717;53.040;18.488;2023-06-04T00:36:12;7.43;;;2.60;;
53618;SDS011;68717;53.040;18.488;2023-06-04T00:36:25;6.55;;;2.38;;
53618;SDS011;68717;53.040;18.488;2023-06-04T00:36:38;5.80;;;2.15;;
53618;SDS011;68717;53.040;18.488;2023-06-04T00:36:52;7.15;;;2.20;;
53618;SDS011;68717;53.040;18.488;2023-06-04T00:37:04;9.30;;;2.40;;
53618;SDS011;68717;53.040;18.488;2023-06-04T00:37:17;10.52;;;2.67;;
53618;SDS011;68717;53.040;18.488;2023-06-04T00:37:30;10.63;;;2.72;;
53618;SDS011;68717;53.040;18.488;2023-06-04T00:37:43;10.18;;;2.60;;
53618;SDS011;68717;53.040;18.488;2023-06-04T00:37:55;8.30;;;2.50;;
53618;SDS011;68717;53.040;18.488;2023-06-04T00:38:09;7.85;;;2.50;;
53618;SDS011;68717;53.040;18.488;2023-06-04T00:38:22;7.97;;;2.35;;
53618;SDS011;68717;53.040;18.488;2023-06-04T00:38:35;10.43;;;2.58;;
53618;SDS011;68717;53.040;18.488;2023-06-04T00:38:47;10.23;;;2.70;;
53618;SDS011;68717;53.040;18.488;2023-06-04T00:39:00;8.20;;;2.50;;
53618;SDS011;68717;53.040;18.488;2023-06-04T00:39:13;7.22;;;2.47;;
53618;SDS011;68717;53.040;18.488;2023-06-04T00:39:26;9.30;;;2.58;;
53618;SDS011;68717;53.040;18.488;2023-06-04T00:39:39;10.38;;;2.50;;
53618;SDS011;68717;53.040;18.488;2023-06-04T00:39:52;9.27;;;2.45;;
53618;SDS011;68717;53.040;18.488;2023-06-04T00:40:05;7.82;;;2.40;;
53618;SDS011;68717;53.040;18.488;2023-06-04T00:40:18;6.60;;;2.53;;
53618;SDS011;68717;53.040;18.488;2023-06-04T00:40:31;7.70;;;2.55;;
53618;SDS011;68717;53.040;18.488;2023-06-04T00:40:45;9.70;;;2.60;;
53618;SDS011;68717;53.040;18.488;2023-06-04T00:40:58;10.73;;;2.60;;
53618;SDS011;68717;53.040;18.488;2023-06-04T00:41:10;10.70;;;2.50;;
53618;SDS011;68717;53.040;18.488;2023-06-04T00:41:23;8.98;;;2.30;;
53618;SDS011;68717;53.040;18.488;2023-06-04T00:41:35;8.93;;;2.45;;
53618;SDS011;68717;53.040;18.488;2023-06-04T00:41:48;10.05;;;2.80;;
53618;SDS011;68717;53.040;18.488;2023-06-04T00:42:01;10.90;;;2.80;;
53618;SDS011;68717;53.040;18.488;2023-06-04T00:42:15;8.27;;;2.63;;
53618;SDS011;68717;53.040;18.488;2023-06-04T00:42:28;8.15;;;2.63;;
53618;SDS011;68717;53.040;18.488;2023-06-04T00:42:40;8.70;;;2.70;;
53618;SDS011;68717;53.040;18.488;2023-06-04T00:42:53;9.70;;;2.60;;
53618;SDS011;68717;53.040;18.488;2023-06-04T00:43:07;11.27;;;2.63;;
53618;SDS011;68717;53.040;18.488;2023-06-04T00:43:20;14.15;;;2.78;;
53618;SDS011;68717;53.040;18.488;2023-06-04T00:43:33;13.68;;;2.80;;
53618;SDS011;68717;53.040;18.488;2023-06-04T00:43:48;11.13;;;2.70;;
53618;SDS011;68717;53.040;18.488;2023-06-04T00:44:08;11.85;;;2.80;;
53618;SDS011;68717;53.040;18.488;2023-06-04T00:44:21;11.68;;;2.67;;
53618;SDS011;68717;53.040;18.488;2023-06-04T00:44:34;9.63;;;2.60;;
53618;SDS011;68717;53.040;18.488;2023-06-04T00:44:48;8.50;;;2.60;;
53618;SDS011;68717;53.040;18.488;2023-06-04T00:45:01;8.35;;;2.63;;
53618;SDS011;68717;53.040;18.488;2023-06-04T00:45:15;9.45;;;2.70;;
53618;SDS011;68717;53.040;18.488;2023-06-04T00:45:30;9.25;;;2.65;;
53618;SDS011;68717;53.040;18.488;2023-06-04T00:45:44;9.00;;;2.60;;
53618;SDS011;68717;53.040;18.488;2023-06-04T00:45:58;9.10;;;2.53;;
53618;SDS011;68717;53.040;18.488;2023-06-04T00:46:10;9.55;;;2.45;;
53618;SDS011;68717;53.040;18.488;2023-06-04T00:46:29;10.35;;;2.63;;
53618;SDS011;68717;53.040;18.488;2023-06-04T00:46:43;10.63;;;2.80;;
53618;SDS011;68717;53.040;18.488;2023-06-04T00:46:59;9.65;;;2.50;;
53618;SDS011;68717;53.040;18.488;2023-06-04T00:47:12;8.10;;;2.42;;
53618;SDS011;68717;53.040;18.488;2023-06-04T00:47:26;8.25;;;2.55;;
53618;SDS011;68717;53.040;18.488;2023-06-04T00:47:40;7.50;;;2.60;;
53618;SDS011;68717;53.040;18.488;2023-06-04T00:47:53;9.48;;;2.60;;
53618;SDS011;68717;53.040;18.488;2023-06-04T00:48:06;9.48;;;2.60;;
53618;SDS011;68717;53.040;18.488;2023-06-04T00:48:19;10.73;;;2.58;;
53618;SDS011;68717;53.040;18.488;2023-06-04T00:48:34;11.73;;;2.85;;
53618;SDS011;68717;53.040;18.488;2023-06-04T00:48:49;12.73;;;3.05;;
53618;SDS011;68717;53.040;18.488;2023-06-04T00:49:01;12.05;;;2.85;;
53618;SDS011;68717;53.040;18.488;2023-06-04T00:49:14;13.35;;;2.83;;
53618;SDS011;68717;53.040;18.488;2023-06-04T00:49:27;14.68;;;2.80;;
53618;SDS011;68717;53.040;18.488;2023-06-04T00:49:40;13.20;;;2.50;;
53618;SDS011;68717;53.040;18.488;2023-06-04T00:49:56;10.48;;;2.80;;
53618;SDS011;68717;53.040;18.488;2023-06-04T00:50:10;13.43;;;3.28;;
53618;SDS011;68717;53.040;18.488;2023-06-04T00:50:23;16.13;;;3.10;;
53618;SDS011;68717;53.040;18.488;2023-06-04T00:50:36;16.52;;;3.08;;
53618;SDS011;68717;53.040;18.488;2023-06-04T00:50:50;13.02;;;2.72;;
53618;SDS011;68717;53.040;18.488;2023-06-04T00:51:03;9.65;;;2.50;;
53618;SDS011;68717;53.040;18.488;2023-06-04T00:51:17;9.65;;;2.53;;
53618;SDS011;68717;53.040;18.488;2023-06-04T00:51:30;11.00;;;2.80;;
53618;SDS011;68717;53.040;18.488;2023-06-04T00:51:44;12.23;;;2.90;;
53618;SDS011;68717;53.040;18.488;2023-06-04T00:51:57;13.30;;;2.97;;
53618;SDS011;68717;53.040;18.488;2023-06-04T00:52:10;11.40;;;3.03;;
53618;SDS011;68717;53.040;18.488;2023-06-04T00:52:23;10.75;;;2.80;;
53618;SDS011;68717;53.040;18.488;2023-06-04T00:52:36;10.63;;;2.70;;
53618;SDS011;68717;53.040;18.488;2023-06-04T00:52:50;10.90;;;2.70;;
53618;SDS011;68717;53.040;18.488;2023-06-04T00:53:04;11.65;;;2.67;;
53618;SDS011;68717;53.040;18.488;2023-06-04T00:53:17;9.88;;;2.55;;
53618;SDS011;68717;53.040;18.488;2023-06-04T00:53:30;8.88;;;2.72;;
53618;SDS011;68717;53.040;18.488;2023-06-04T00:53:43;10.13;;;2.80;;
53618;SDS011;68717;53.040;18.488;2023-06-04T00:53:56;11.73;;;2.78;;
53618;SDS011;68717;53.040;18.488;2023-06-04T00:54:08;9.18;;;2.67;;
53618;SDS011;68717;53.040;18.488;2023-06-04T00:54:23;8.30;;;2.80;;
53618;SDS011;68717;53.040;18.488;2023-06-04T00:54:37;11.32;;;2.70;;
53618;SDS011;68717;53.040;18.488;2023-06-04T00:54:50;12.30;;;2.47;;
53618;SDS011;68717;53.040;18.488;2023-06-04T00:55:03;12.02;;;2.60;;
53618;SDS011;68717;53.040;18.488;2023-06-04T00:55:16;12.57;;;2.60;;
53618;SDS011;68717;53.040;18.488;2023-06-04T00:55:30;10.57;;;2.65;;
53618;SDS011;68717;53.040;18.488;2023-06-04T00:55:43;10.32;;;2.90;;
53618;SDS011;68717;53.040;18.488;2023-06-04T00:55:57;11.05;;;2.80;;
53618;SDS011;68717;53.040;18.488;2023-06-04T00:56:09;10.60;;;2.58;;
53618;SDS011;68717;53.040;18.488;2023-06-04T00:56:22;11.10;;;2.55;;
53618;SDS011;68717;53.040;18.488;2023-06-04T00:56:35;9.60;;;2.25;;
53618;SDS011;68717;53.040;18.488;2023-06-04T00:56:49;9.43;;;2.47;;
53618;SDS011;68717;53.040;18.488;2023-06-04T00:57:02;10.02;;;2.72;;
53618;SDS011;68717;53.040;18.488;2023-06-04T00:57:14;11.30;;;2.83;;
53618;SDS011;68717;53.040;18.488;2023-06-04T00:57:28;10.10;;;2.70;;
53618;SDS011;68717;53.040;18.488;2023-06-04T00:57:41;10.13;;;2.53;;
53618;SDS011;68717;53.040;18.488;2023-06-04T00:57:53;9.18;;;2.70;;
53618;SDS011;68717;53.040;18.488;2023-06-04T00:58:06;9.73;;;2.92;;
53618;SDS011;68717;53.040;18.488;2023-06-04T00:58:20;13.38;;;2.83;;
53618;SDS011;68717;53.040;18.488;2023-06-04T00:58:33;12.23;;;2.92;;
53618;SDS011;68717;53.040;18.488;2023-06-04T00:58:50;7.63;;;2.83;;
53618;SDS011;68717;53.040;18.488;2023-06-04T00:59:05;7.40;;;2.63;;
53618;SDS011;68717;53.040;18.488;2023-06-04T00:59:19;10.88;;;2.50;;
53618;SDS011;68717;53.040;18.488;2023-06-04T00:59:31;12.10;;;2.60;;
53618;SDS011;68717;53.040;18.488;2023-06-04T00:59:45;11.75;;;2.70;;
53618;SDS011;68717;53.040;18.488;2023-06-04T00:59:58;11.68;;;2.70;;
53618;SDS011;68717;53.040;18.488;2023-06-04T01:00:11;10.50;;;2.70;;
53618;SDS011;68717;53.040;18.488;2023-06-04T01:00:25;11.27;;;2.60;;
53618;SDS011;68717;53.040;18.488;2023-06-04T01:00:38;10.85;;;2.60;;
53618;SDS011;68717;53.040;18.488;2023-06-04T01:00:52;9.63;;;2.40;;
53618;SDS011;68717;53.040;18.488;2023-06-04T01:01:10;10.65;;;2.55;;
53618;SDS011;68717;53.040;18.488;2023-06-04T01:01:30;10.43;;;2.63;;
53618;SDS011;68717;53.040;18.488;2023-06-04T01:01:50;9.52;;;2.70;;
53618;SDS011;68717;53.040;18.488;2023-06-04T01:02:11;9.13;;;2.47;;
53618;SDS011;68717;53.040;18.488;2023-06-04T01:02:25;9.25;;;2.45;;
53618;SDS011;68717;53.040;18.488;2023-06-04T01:02:41;9.80;;;2.45;;
53618;SDS011;68717;53.040;18.488;2023-06-04T01:02:55;11.02;;;2.68;;
53618;SDS011;68717;53.040;18.488;2023-06-04T01:03:12;9.77;;;2.85;;
53618;SDS011;68717;53.040;18.488;2023-06-04T01:03:29;7.20;;;2.45;;
53618;SDS011;68717;53.040;18.488;2023-06-04T01:03:49;9.65;;;2.60;;
53618;SDS011;68717;53.040;18.488;2023-06-04T01:04:04;11.90;;;2.70;;
53618;SDS011;68717;53.040;18.488;2023-06-04T01:04:26;9.40;;;2.55;;
53618;SDS011;68717;53.040;18.488;2023-06-04T01:04:44;8.52;;;2.35;;
53618;SDS011;68717;53.040;18.488;2023-06-04T01:05:03;8.18;;;2.38;;
53618;SDS011;68717;53.040;18.488;2023-06-04T01:05:24;10.82;;;2.58;;
53618;SDS011;68717;53.040;18.488;2023-06-04T01:05:48;11.93;;;2.63;;
53618;SDS011;68717;53.040;18.488;2023-06-04T01:06:08;9.65;;;2.65;;
53618;SDS011;68717;53.040;18.488;2023-06-04T01:06:35;12.43;;;2.58;;
53618;SDS011;68717;53.040;18.488;2023-06-04T01:06:50;14.13;;;2.80;;
53618;SDS011;68717;53.040;18.488;2023-06-04T01:07:05;10.45;;;2.55;;
53618;SDS011;68717;53.040;18.488;2023-06-04T01:07:22;10.02;;;2.38;;
53618;SDS011;68717;53.040;18.488;2023-06-04T01:07:35;9.50;;;2.38;;
53618;SDS011;68717;53.040;18.488;2023-06-04T01:07:49;8.43;;;2.45;;
53618;SDS011;68717;53.040;18.488;2023-06-04T01:08:02;8.73;;;2.70;;
53618;SDS011;68717;53.040;18.488;2023-06-04T01:08:17;9.98;;;2.72;;
53618;SDS011;68717;53.040;18.488;2023-06-04T01:08:31;9.27;;;2.45;;
53618;SDS011;68717;53.040;18.488;2023-06-04T01:08:44;8.55;;;2.47;;
53618;SDS011;68717;53.040;18.488;2023-06-04T01:08:57;9.80;;;2.60;;
53618;SDS011;68717;53.040;18.488;2023-06-04T01:09:12;11.52;;;2.80;;
53618;SDS011;68717;53.040;18.488;2023-06-04T01:09:26;11.70;;;2.92;;
53618;SDS011;68717;53.040;18.488;2023-06-04T01:09:39;11.57;;;2.80;;
53618;SDS011;68717;53.040;18.488;2023-06-04T01:09:52;10.75;;;2.78;;
53618;SDS011;68717;53.040;18.488;2023-06-04T01:10:06;11.38;;;2.72;;
53618;SDS011;68717;53.040;18.488;2023-06-04T01:10:20;13.00;;;2.80;;
53618;SDS011;68717;53.040;18.488;2023-06-04T01:10:34;11.60;;;2.63;;
53618;SDS011;68717;53.040;18.488;2023-06-04T01:10:50;10.15;;;2.75;;
53618;SDS011;68717;53.040;18.488;2023-06-04T01:11:03;12.70;;;2.90;;
53618;SDS011;68717;53.040;18.488;2023-06-04T01:11:16;14.32;;;2.75;;
53618;SDS011;68717;53.040;18.488;2023-06-04T01:11:32;10.73;;;2.50;;
53618;SDS011;68717;53.040;18.488;2023-06-04T01:11:46;8.75;;;2.45;;
53618;SDS011;68717;53.040;18.488;2023-06-04T01:12:03;9.85;;;2.72;;
53618;SDS011;68717;53.040;18.488;2023-06-04T01:12:16;10.30;;;3.00;;
53618;SDS011;68717;53.040;18.488;2023-06-04T01:12:29;9.52;;;2.95;;
53618;SDS011;68717;53.040;18.488;2023-06-04T01:12:42;9.70;;;2.67;;
53618;SDS011;68717;53.040;18.488;2023-06-04T01:12:55;10.10;;;2.40;;
53618;SDS011;68717;53.040;18.488;2023-06-04T01:13:08;8.55;;;2.47;;
53618;SDS011;68717;53.040;18.488;2023-06-04T01:13:22;7.82;;;2.60;;
53618;SDS011;68717;53.040;18.488;2023-06-04T01:13:37;8.10;;;2.60;;
53618;SDS011;68717;53.040;18.488;2023-06-04T01:13:49;10.48;;;2.67;;
53618;SDS011;68717;53.040;18.488;2023-06-04T01:14:02;12.90;;;2.85;;
53618;SDS011;68717;53.040;18.488;2023-06-04T01:14:17;13.18;;;2.90;;
53618;SDS011;68717;53.040;18.488;2023-06-04T01:14:30;11.43;;;2.88;;
53618;SDS011;68717;53.040;18.488;2023-06-04T01:14:45;9.15;;;2.67;;
53618;SDS011;68717;53.040;18.488;2023-06-04T01:14:59;9.02;;;2.65;;
53618;SDS011;68717;53.040;18.488;2023-06-04T01:15:12;8.50;;;2.60;;
53618;SDS011;68717;53.040;18.488;2023-06-04T01:15:25;10.80;;;2.78;;
53618;SDS011;68717;53.040;18.488;2023-06-04T01:15:37;10.63;;;2.78;;
53618;SDS011;68717;53.040;18.488;2023-06-04T01:15:50;9.65;;;2.70;;
53618;SDS011;68717;53.040;18.488;2023-06-04T01:16:03;9.98;;;2.65;;
53618;SDS011;68717;53.040;18.488;2023-06-04T01:16:18;8.43;;;2.70;;
53618;SDS011;68717;53.040;18.488;2023-06-04T01:16:33;8.15;;;2.53;;
53618;SDS011;68717;53.040;18.488;2023-06-04T01:16:49;11.00;;;2.47;;
53618;SDS011;68717;53.040;18.488;2023-06-04T01:17:15;10.93;;;2.58;;
53618;SDS011;68717;53.040;18.488;2023-06-04T01:17:32;11.60;;;2.55;;
53618;SDS011;68717;53.040;18.488;2023-06-04T01:17:52;12.55;;;2.83;;
53618;SDS011;68717;53.040;18.488;2023-06-04T01:18:15;11.07;;;2.63;;
53618;SDS011;68717;53.040;18.488;2023-06-04T01:18:39;9.48;;;2.60;;
53618;SDS011;68717;53.040;18.488;2023-06-04T01:18:56;9.00;;;2.70;;
53618;SDS011;68717;53.040;18.488;2023-06-04T01:19:20;9.22;;;2.88;;
53618;SDS011;68717;53.040;18.488;2023-06-04T01:20:22;10.00;;;2.45;;
53618;SDS011;68717;53.040;18.488;2023-06-04T01:20:45;10.82;;;2.58;;
53618;SDS011;68717;53.040;18.488;2023-06-04T01:21:00;10.73;;;2.78;;
53618;SDS011;68717;53.040;18.488;2023-06-04T01:21:16;7.90;;;2.80;;
53618;SDS011;68717;53.040;18.488;2023-06-04T01:21:30;8.30;;;2.50;;
53618;SDS011;68717;53.040;18.488;2023-06-04T01:21:50;9.35;;;2.33;;
53618;SDS011;68717;53.040;18.488;2023-06-04T01:22:09;10.65;;;2.60;;
53618;SDS011;68717;53.040;18.488;2023-06-04T01:22:31;10.45;;;2.80;;
53618;SDS011;68717;53.040;18.488;2023-06-04T01:22:54;11.35;;;2.55;;
53618;SDS011;68717;53.040;18.488;2023-06-04T01:23:28;9.30;;;2.60;;
53618;SDS011;68717;53.040;18.488;2023-06-04T01:23:46;9.05;;;2.70;;
53618;SDS011;68717;53.040;18.488;2023-06-04T01:24:11;9.80;;;2.63;;
53618;SDS011;68717;53.040;18.488;2023-06-04T01:24:24;9.48;;;2.60;;